Arboledas, Argentina
Current Conditions -  °F | °C
As of 3:00 AM on Thursday 23 Oct 2014 (Local Time) from SAEZ Reporting Station
Clear Clear  
Wind Chill: 64°   Ceiling: Unl
Heat Index: 64°   Visibility: 6mi
Dew Point: 55°   Wind: 0mph
Humidity: 73%   Direction: NA
Pressure: 29.97"   Gusts: NA
Location:  36.49°S, 61.45°W
Report Text: SAEZ 230600Z 00000KT CAVOK 18/13 Q1015
Loading
Personal Weather Stations






























Interactive Weather Map
Tropical Storm Tracking
New forecast layout! Learn more

10-Day Weather Forecast

Advertisements
Track Severe Weather on mobile